Time;durP1;ratioP1;P1;durP2;ratioP2;P2;SDS_P1;SDS_P2;PMS_P1;PMS_P2;Temp;Humidity;BMP_temperature;BMP_pressure;BME280_temperature;BME280_humidity;BME280_pressure;Samples;Min_cycle;Max_cycle;Signal;HPM_P1;HPM_P2
2022/05/18 00:00:13;;;;;;;6.53;3.80;;;;;;;17.12;90.78;94752.22;5036073;28;20724;-81
2022/05/18 00:02:39;;;;;;;9.57;3.30;;;;;;;17.00;90.27;94730.31;5053698;28;20160;-81
2022/05/18 00:05:05;;;;;;;4.95;3.85;;;;;;;17.20;90.04;94753.63;5054356;28;20228;-81
2022/05/18 00:07:31;;;;;;;4.85;3.35;;;;;;;17.24;89.40;94744.84;5053833;28;20245;-81
2022/05/18 00:09:57;;;;;;;3.83;3.47;;;;;;;17.04;89.01;94704.78;5054406;28;20174;-81
2022/05/18 00:12:22;;;;;;;4.63;3.28;;;;;;;17.31;88.44;94741.97;5053679;28;20179;-81
2022/05/18 00:14:48;;;;;;;4.38;3.17;;;;;;;17.26;88.27;94740.09;5052062;28;20214;-81
2022/05/18 00:17:14;;;;;;;5.40;3.88;;;;;;;17.18;88.26;94734.44;5053821;28;20186;-81
2022/05/18 00:19:39;;;;;;;5.57;4.00;;;;;;;16.80;88.46;94714.97;5054083;28;20650;-81
2022/05/18 00:22:05;;;;;;;6.30;3.83;;;;;;;17.03;88.57;94739.66;5035453;28;20167;-81
2022/05/18 00:24:30;;;;;;;7.45;3.40;;;;;;;16.60;89.37;94717.44;5049985;28;20179;-82
2022/05/18 00:26:56;;;;;;;5.47;4.20;;;;;;;16.42;90.00;94686.69;5054134;28;20162;-81
2022/05/18 00:29:23;;;;;;;4.70;3.72;;;;;;;16.84;90.05;94744.53;5041887;28;20691;-81
2022/05/18 00:31:49;;;;;;;5.47;3.70;;;;;;;16.88;89.85;94743.75;5039980;28;20164;-81
2022/05/18 00:34:16;;;;;;;6.97;3.75;;;;;;;16.90;89.36;94746.16;5047464;28;20187;-81
2022/05/18 00:36:42;;;;;;;6.03;3.80;;;;;;;16.70;88.95;94708.75;5051812;28;20171;-81
2022/05/18 00:39:08;;;;;;;4.10;3.47;;;;;;;16.97;88.38;94747.56;5036095;28;20533;-82
2022/05/18 00:41:34;;;;;;;7.82;4.18;;;;;;;16.89;88.25;94739.25;5053861;28;20174;-81
2022/05/18 00:43:59;;;;;;;4.65;3.92;;;;;;;16.71;87.44;94699.72;5053874;28;20159;-81
2022/05/18 00:46:25;;;;;;;8.85;4.28;;;;;;;16.68;87.96;94724.97;5053833;28;20187;-81
2022/05/18 00:48:53;;;;;;;4.07;3.63;;;;;;;16.72;87.69;94734.03;5053931;28;20194;-82
2022/05/18 00:51:29;;;;;;;4.20;3.80;;;;;;;16.44;88.42;94751.00;5053669;28;20537;-82
2022/05/18 00:54:13;;;;;;;6.85;3.70;;;;;;;16.35;89.46;94760.47;5053694;28;20155;-82
2022/05/18 00:56:53;;;;;;;6.43;4.15;;;;;;;16.35;89.74;94764.97;5053864;28;20630;-82
2022/05/18 00:59:24;;;;;;;4.70;4.10;;;;;;;16.10;89.71;94728.28;5035458;28;20170;-82
2022/05/18 01:01:52;;;;;;;5.60;4.28;;;;;;;16.34;89.89;94760.72;5053509;28;20536;-82
2022/05/18 01:04:18;;;;;;;5.70;4.38;;;;;;;16.31;89.69;94755.91;5053435;28;20182;-82
2022/05/18 01:06:43;;;;;;;7.55;4.63;;;;;;;16.29;90.09;94753.50;5047070;28;20171;-82
2022/05/18 01:09:23;;;;;;;6.63;4.50;;;;;;;16.11;90.59;94743.19;5042961;28;20195;-82
2022/05/18 01:11:48;;;;;;;5.10;4.60;;;;;;;15.85;91.65;94756.13;5052049;28;20174;-82
2022/05/18 01:14:37;;;;;;;6.93;4.93;;;;;;;15.81;92.50;94757.69;5034441;28;20219;-82
2022/05/18 01:17:04;;;;;;;8.27;4.45;;;;;;;15.66;93.33;94746.03;5052201;28;20167;-81
2022/05/18 01:19:44;;;;;;;6.32;4.50;;;;;;;15.77;92.69;94753.91;5052422;28;20635;-82
2022/05/18 01:22:28;;;;;;;6.00;4.68;;;;;;;15.87;92.67;94753.25;5053895;28;20171;-82
2022/05/18 01:25:32;;;;;;;5.20;4.68;;;;;;;15.81;91.70;94741.78;5053349;28;20186;-82
2022/05/18 01:27:59;;;;;;;5.18;4.65;;;;;;;15.73;92.07;94725.47;5035116;28;20282;-82
2022/05/18 01:30:27;;;;;;;6.45;5.05;;;;;;;15.80;92.35;94726.88;5051666;28;20163;-81
2022/05/18 01:32:55;;;;;;;6.63;4.47;;;;;;;15.87;92.00;94736.50;5052929;28;20174;-81
2022/05/18 01:35:26;;;;;;;6.03;4.30;;;;;;;15.80;91.66;94708.31;5053267;28;20165;-81
2022/05/18 01:37:57;;;;;;;5.43;4.50;;;;;;;15.98;91.55;94731.09;5034950;28;20171;-81
2022/05/18 01:40:28;;;;;;;8.68;4.35;;;;;;;16.10;91.38;94725.63;5034846;28;20888;-82
2022/05/18 01:43:01;;;;;;;6.55;4.57;;;;;;;16.16;90.18;94706.88;5034812;28;20262;-81
2022/05/18 01:45:27;;;;;;;5.32;3.95;;;;;;;16.02;90.45;94707.50;5052977;28;20234;-81
2022/05/18 01:47:52;;;;;;;5.45;4.15;;;;;;;16.14;90.15;94713.47;5052750;28;20245;-82
2022/05/18 01:50:25;;;;;;;7.85;5.00;;;;;;;16.03;90.28;94722.38;5051840;28;20171;-81
2022/05/18 01:52:50;;;;;;;6.97;4.28;;;;;;;15.83;90.75;94678.59;5051816;28;20155;-81
2022/05/18 01:55:51;;;;;;;5.88;4.65;;;;;;;16.07;90.27;94719.00;5051728;28;20193;-81
2022/05/18 01:58:16;;;;;;;6.95;4.82;;;;;;;15.93;90.40;94701.81;5049738;28;20248;-81
2022/05/18 02:00:44;;;;;;;5.70;4.63;;;;;;;16.02;90.44;94716.25;5051582;28;20717;-81
2022/05/18 02:03:10;;;;;;;5.65;4.30;;;;;;;15.96;89.95;94703.19;5051699;28;20561;-81
2022/05/18 02:05:36;;;;;;;4.88;4.28;;;;;;;15.91;89.41;94708.44;5051757;28;20561;-81
2022/05/18 02:08:03;;;;;;;5.20;3.80;;;;;;;16.03;89.43;94719.72;5051446;28;20263;-81
2022/05/18 02:10:28;;;;;;;4.88;4.20;;;;;;;16.12;88.99;94705.75;5051643;28;20179;-81
2022/05/18 02:12:54;;;;;;;6.43;4.47;;;;;;;16.15;88.01;94697.31;5034090;28;20262;-80
2022/05/18 02:15:19;;;;;;;6.32;4.03;;;;;;;16.26;86.60;94716.00;5051687;28;20163;-81
2022/05/18 02:17:45;;;;;;;3.65;3.35;;;;;;;16.18;86.47;94691.47;5042280;28;20175;-82
2022/05/18 02:20:12;;;;;;;5.13;4.13;;;;;;;16.29;86.78;94708.31;5037474;28;20206;-82
2022/05/18 02:22:37;;;;;;;35.85;20.67;;;;;;;16.10;87.55;94689.25;5018262;28;20736;-81
2022/05/18 02:25:04;;;;;;;19.10;12.68;;;;;;;16.30;87.38;94714.44;5032157;28;20176;-81
2022/05/18 02:27:30;;;;;;;4.72;4.13;;;;;;;16.30;86.67;94712.59;5021757;28;20252;-82
2022/05/18 02:29:56;;;;;;;4.95;3.58;;;;;;;16.18;86.06;94715.38;5039243;28;20210;-82
2022/05/18 02:32:22;;;;;;;4.63;3.33;;;;;;;16.10;87.67;94691.91;5037239;28;20555;-82
2022/05/18 02:34:48;;;;;;;6.28;3.97;;;;;;;16.23;87.44;94701.38;5042989;28;20183;-81
2022/05/18 02:37:14;;;;;;;3.92;3.03;;;;;;;16.31;86.39;94702.78;5051332;28;20225;-81
2022/05/18 02:39:39;;;;;;;7.13;3.40;;;;;;;16.42;87.45;94699.19;5051141;28;20677;-82
2022/05/18 02:42:05;;;;;;;6.25;3.55;;;;;;;16.50;86.99;94709.34;5051026;28;20258;-82
2022/05/18 02:44:31;;;;;;;4.05;3.08;;;;;;;16.29;87.12;94665.03;5051075;28;20182;-82
2022/05/18 02:46:59;;;;;;;3.35;2.90;;;;;;;16.62;87.13;94711.88;5051030;28;20171;-82
2022/05/18 02:49:25;;;;;;;3.53;2.40;;;;;;;16.51;86.41;94679.06;5051646;28;20195;-81
2022/05/18 02:51:51;;;;;;;2.72;2.53;;;;;;;16.70;86.62;94706.91;5051771;28;20159;-82
2022/05/18 02:57:02;;;;;;;5.45;2.92;;;;;;;16.79;86.55;94708.03;5052582;28;20251;-81
2022/05/18 02:59:27;;;;;;;7.18;2.78;;;;;;;16.62;85.17;94670.16;5029373;28;20172;-81
2022/05/18 03:01:53;;;;;;;3.72;2.53;;;;;;;16.90;85.36;94716.91;5044626;28;20171;-81
2022/05/18 03:04:19;;;;;;;4.10;3.40;;;;;;;16.84;84.61;94705.44;5033223;28;20221;-81
2022/05/18 03:06:45;;;;;;;4.70;3.00;;;;;;;16.85;85.74;94706.25;5051033;28;20236;-81
2022/05/18 03:09:10;;;;;;;5.70;3.03;;;;;;;16.92;85.07;94723.59;5032834;28;20195;-81
2022/05/18 03:11:36;;;;;;;4.35;2.60;;;;;;;16.86;85.39;94716.63;5051048;28;20634;-81
2022/05/18 03:14:01;;;;;;;2.97;2.67;;;;;;;16.79;84.78;94713.34;5051088;28;20284;-81
2022/05/18 03:16:28;;;;;;;3.13;2.80;;;;;;;16.76;84.47;94708.56;5051026;28;20175;-81
2022/05/18 03:18:54;;;;;;;5.70;3.10;;;;;;;16.92;84.17;94734.22;5050727;28;20167;-81
2022/05/18 03:24:04;;;;;;;4.57;3.60;;;;;;;16.86;84.61;94707.84;5050762;28;20169;-80
2022/05/18 03:26:30;;;;;;;4.32;3.05;;;;;;;17.07;84.69;94735.41;5051258;28;20171;-80
2022/05/18 03:28:57;;;;;;;3.88;3.38;;;;;;;17.09;84.48;94735.97;5051634;28;20187;-80
2022/05/18 03:31:23;;;;;;;5.80;3.92;;;;;;;17.11;84.64;94725.88;5051611;28;20226;-80
2022/05/18 03:33:49;;;;;;;6.00;3.40;;;;;;;17.00;84.65;94702.91;5033216;28;20261;-81
2022/05/18 03:36:16;;;;;;;7.03;4.13;;;;;;;17.19;83.93;94725.41;5041763;28;20263;-81
2022/05/18 03:38:44;;;;;;;6.78;4.63;;;;;;;17.30;85.00;94737.69;5049159;28;20171;-80
2022/05/18 03:41:09;;;;;;;9.00;4.70;;;;;;;17.33;83.86;94746.00;5032505;28;20266;-80
2022/05/18 03:43:36;;;;;;;7.53;5.38;;;;;;;17.22;83.97;94716.88;5051876;28;20213;-80
2022/05/18 03:46:02;;;;;;;5.88;4.53;;;;;;;17.39;84.12;94752.13;5054181;28;20242;-81
2022/05/18 03:48:29;;;;;;;10.77;4.70;;;;;;;17.40;84.46;94745.75;5030324;28;21103;-83
2022/05/18 03:50:57;;;;;;;5.45;4.40;;;;;;;17.49;84.78;94749.56;5052369;28;20179;-81
2022/05/18 03:53:23;;;;;;;8.38;4.53;;;;;;;17.35;84.89;94730.56;5044272;28;20599;-81
2022/05/18 03:55:49;;;;;;;5.25;4.68;;;;;;;17.56;84.42;94758.13;5044988;28;21021;-82
2022/05/18 03:58:15;;;;;;;5.03;4.53;;;;;;;17.58;84.31;94761.31;5054672;28;20187;-80
2022/05/18 04:00:42;;;;;;;6.75;4.80;;;;;;;17.62;84.32;94743.84;5053656;28;20248;-81
2022/05/18 04:03:08;;;;;;;4.63;3.95;;;;;;;17.71;82.32;94754.78;5042418;28;20171;-80
2022/05/18 04:05:37;;;;;;;7.70;4.50;;;;;;;17.76;83.45;94757.47;5053013;28;20167;-81
2022/05/18 04:08:03;;;;;;;6.13;5.53;;;;;;;17.82;83.29;94758.28;5051580;28;20192;-81
2022/05/18 04:10:28;;;;;;;9.13;4.72;;;;;;;17.70;82.98;94723.91;5043684;28;20788;-81
2022/05/18 04:12:54;;;;;;;5.68;4.60;;;;;;;17.80;82.16;94755.13;5045954;28;20202;-81
2022/05/18 04:15:19;;;;;;;6.00;4.15;;;;;;;17.76;82.97;94740.69;5053175;28;20167;-81
2022/05/18 04:17:46;;;;;;;4.90;4.10;;;;;;;17.85;81.90;94745.28;5053382;28;20659;-81
2022/05/18 04:20:22;;;;;;;7.53;4.07;;;;;;;17.93;82.23;94755.44;5052078;28;20244;-81
2022/05/18 04:22:49;;;;;;;5.72;4.57;;;;;;;18.09;82.18;94772.28;5052619;28;20262;-81
2022/05/18 04:25:19;;;;;;;5.57;4.20;;;;;;;18.10;83.18;94773.91;5053060;28;20570;-79
2022/05/18 04:27:47;;;;;;;4.30;3.90;;;;;;;18.01;82.06;94768.28;5051333;28;20195;-79
2022/05/18 04:30:18;;;;;;;4.60;3.58;;;;;;;17.95;82.68;94768.50;5052724;28;20240;-81
2022/05/18 04:32:43;;;;;;;5.63;4.28;;;;;;;18.00;82.78;94773.84;5053029;28;20210;-79
2022/05/18 04:35:11;;;;;;;5.95;4.50;;;;;;;17.92;82.19;94755.69;5053023;28;20171;-81
2022/05/18 04:37:37;;;;;;;6.63;4.43;;;;;;;17.55;82.43;94711.28;5052644;28;20179;-81
2022/05/18 04:40:04;;;;;;;11.20;4.75;;;;;;;17.94;83.68;94770.38;5052806;28;20167;-81
2022/05/18 04:42:30;;;;;;;5.50;4.55;;;;;;;17.80;83.25;94731.16;5044354;28;20254;-81
2022/05/18 04:44:56;;;;;;;10.60;4.95;;;;;;;18.05;83.57;94760.56;5047372;28;20179;-82
2022/05/18 04:47:22;;;;;;;5.30;4.57;;;;;;;18.28;82.06;94773.47;5052501;28;20167;-81
2022/05/18 04:49:50;;;;;;;5.78;4.45;;;;;;;18.39;82.40;94767.09;5052633;28;20178;-83
2022/05/18 04:52:17;;;;;;;6.70;4.70;;;;;;;18.39;81.46;94775.09;5024342;28;20631;-80
2022/05/18 04:54:42;;;;;;;6.88;4.82;;;;;;;18.41;81.34;94772.19;5039706;28;20179;-81
2022/05/18 04:57:08;;;;;;;5.82;4.63;;;;;;;18.43;81.56;94757.50;5044199;28;20182;-80
2022/05/18 04:59:33;;;;;;;9.60;5.20;;;;;;;18.58;81.05;94774.66;5038796;28;20164;-80
2022/05/18 05:01:59;;;;;;;7.85;5.60;;;;;;;18.64;80.93;94781.59;5033937;28;20167;-80
2022/05/18 05:04:24;;;;;;;9.05;5.13;;;;;;;18.63;80.80;94764.81;5033842;28;21064;-80
2022/05/18 05:06:50;;;;;;;6.30;5.25;;;;;;;18.38;80.66;94732.72;5038277;28;20178;-80
2022/05/18 05:09:16;;;;;;;10.70;5.95;;;;;;;18.18;80.45;94722.78;5040696;28;20186;-80
2022/05/18 05:11:42;;;;;;;8.10;5.90;;;;;;;18.55;80.85;94777.81;5040970;28;20186;-80
2022/05/18 05:14:08;;;;;;;10.25;7.15;;;;;;;18.45;81.53;94773.25;5040971;28;20211;-80
2022/05/18 05:16:34;;;;;;;10.40;6.15;;;;;;;18.07;82.02;94769.88;5051805;28;20673;-80
2022/05/18 05:19:00;;;;;;;7.88;6.13;;;;;;;17.91;83.67;94772.72;5052258;28;20167;-80
2022/05/18 05:21:25;;;;;;;12.65;7.18;;;;;;;17.80;84.25;94757.78;5052059;28;20163;-80
2022/05/18 05:23:51;;;;;;;7.15;5.30;;;;;;;17.86;84.19;94781.50;5051955;28;20731;-80
2022/05/18 05:26:16;;;;;;;8.38;6.20;;;;;;;17.68;84.58;94740.13;5052218;28;20225;-80
2022/05/18 05:28:42;;;;;;;9.23;6.60;;;;;;;17.86;84.06;94770.06;5051980;28;20183;-80
2022/05/18 05:31:14;;;;;;;7.63;5.50;;;;;;;17.76;84.28;94781.44;5049024;28;20623;-80
2022/05/18 05:33:41;;;;;;;7.70;6.03;;;;;;;17.92;85.30;94796.44;5052555;28;20171;-80
2022/05/18 05:36:07;;;;;;;10.48;6.32;;;;;;;17.98;85.24;94786.66;5051655;28;20675;-81
2022/05/18 05:38:33;;;;;;;9.82;6.47;;;;;;;17.93;85.23;94775.94;5051771;28;20167;-81
2022/05/18 05:41:01;;;;;;;7.70;5.32;;;;;;;18.07;85.65;94799.19;5051656;28;20177;-81
2022/05/18 05:43:31;;;;;;;6.65;5.57;;;;;;;18.21;84.81;94807.53;5052372;28;20168;-81
2022/05/18 05:45:59;;;;;;;7.25;5.32;;;;;;;18.16;84.67;94804.06;5052721;28;20173;-81
2022/05/18 05:48:26;;;;;;;7.32;5.85;;;;;;;17.93;85.50;94786.59;5052579;28;20191;-81
2022/05/18 05:50:52;;;;;;;7.78;6.25;;;;;;;18.06;86.27;94821.59;5052712;28;20159;-80
2022/05/18 05:53:17;;;;;;;8.10;6.38;;;;;;;17.92;86.53;94804.44;5052863;28;20684;-81
2022/05/18 05:55:42;;;;;;;9.85;6.03;;;;;;;17.67;86.06;94789.13;5051800;28;20171;-79
2022/05/18 05:58:08;;;;;;;8.05;5.35;;;;;;;17.65;87.06;94812.53;5051366;28;20195;-80
2022/05/18 06:00:34;;;;;;;7.63;5.70;;;;;;;17.73;87.56;94832.53;5051362;28;20550;-80
2022/05/18 06:02:59;;;;;;;11.10;6.25;;;;;;;17.74;88.36;94831.47;5051630;28;20194;-80
2022/05/18 06:05:25;;;;;;;8.43;5.78;;;;;;;17.65;88.29;94833.81;5051379;28;20172;-81
2022/05/18 06:07:50;;;;;;;10.27;6.32;;;;;;;17.65;88.87;94828.50;5051557;28;20676;-81
2022/05/18 06:10:16;;;;;;;10.23;6.70;;;;;;;17.56;89.31;94824.66;5043150;28;20164;-81
2022/05/18 06:12:42;;;;;;;9.45;6.53;;;;;;;17.59;89.00;94837.47;5038138;28;20620;-80
2022/05/18 06:15:09;;;;;;;10.00;7.03;;;;;;;17.26;90.34;94822.56;5031666;28;20230;-81
2022/05/18 06:17:35;;;;;;;10.00;6.95;;;;;;;17.07;92.11;94834.63;5030810;28;20678;-81
2022/05/18 06:20:00;;;;;;;11.15;6.28;;;;;;;16.94;92.09;94827.88;5044134;28;20194;-80
2022/05/18 06:22:26;;;;;;;9.13;6.13;;;;;;;16.95;93.31;94837.44;5037629;28;20167;-80
2022/05/18 06:24:52;;;;;;;10.55;6.38;;;;;;;16.63;93.44;94807.31;5051124;28;20551;-80
2022/05/18 06:27:22;;;;;;;9.18;6.25;;;;;;;16.43;93.97;94825.66;5050880;28;20186;-80
2022/05/18 06:29:48;;;;;;;9.13;6.15;;;;;;;16.43;95.74;94844.28;5050916;28;20185;-80
2022/05/18 06:32:14;;;;;;;7.30;5.95;;;;;;;16.10;96.85;94811.44;5050978;28;20285;-79
2022/05/18 06:34:40;;;;;;;9.10;6.20;;;;;;;16.23;97.11;94827.00;5051159;28;20182;-80
2022/05/18 06:37:06;;;;;;;10.38;6.70;;;;;;;16.29;97.21;94837.69;5052117;28;20224;-81
2022/05/18 06:39:31;;;;;;;9.90;8.13;;;;;;;16.32;97.89;94846.00;5033520;28;20619;-80
2022/05/18 06:41:58;;;;;;;9.38;6.35;;;;;;;16.32;97.56;94850.50;5052079;28;20177;-80
2022/05/18 06:44:24;;;;;;;8.98;5.63;;;;;;;16.37;97.36;94851.34;5051857;28;20246;-80
2022/05/18 06:46:50;;;;;;;8.65;5.32;;;;;;;16.59;97.21;94856.69;5051832;28;20193;-80
2022/05/18 06:49:18;;;;;;;10.20;6.45;;;;;;;16.73;96.32;94862.44;5051656;28;20190;-80
2022/05/18 06:51:46;;;;;;;9.48;5.28;;;;;;;16.75;96.55;94839.88;5051991;28;20216;-80
2022/05/18 06:54:13;;;;;;;7.20;6.05;;;;;;;17.02;96.37;94849.75;5033712;28;20182;-80
2022/05/18 06:56:41;;;;;;;7.85;5.30;;;;;;;17.21;95.45;94862.41;5048842;28;20650;-80
2022/05/18 06:59:09;;;;;;;10.35;7.07;;;;;;;17.18;94.49;94854.97;5050403;28;20206;-81
2022/05/18 07:01:34;;;;;;;20.38;14.35;;;;;;;17.42;93.69;94857.28;5024300;28;20171;-81
2022/05/18 07:04:00;;;;;;;26.13;19.25;;;;;;;17.44;92.69;94847.19;5042869;28;20190;-81
2022/05/18 07:06:29;;;;;;;12.93;9.15;;;;;;;17.53;92.73;94848.34;5041747;28;20252;-81
2022/05/18 07:08:55;;;;;;;8.20;6.38;;;;;;;17.76;91.44;94866.66;5038995;28;20254;-80
2022/05/18 07:11:22;;;;;;;8.98;7.13;;;;;;;17.84;90.41;94868.84;5041581;28;20564;-81
2022/05/18 07:13:51;;;;;;;17.60;13.23;;;;;;;17.87;90.24;94856.88;5041757;28;20222;-80
2022/05/18 07:16:18;;;;;;;19.02;14.57;;;;;;;18.00;91.02;94867.09;5039979;28;21637;-81
2022/05/18 07:18:44;;;;;;;13.48;10.82;;;;;;;18.19;91.82;94878.13;5041457;28;20172;-80
2022/05/18 07:21:10;;;;;;;11.10;8.07;;;;;;;18.36;91.21;94882.25;5044864;28;20179;-80
2022/05/18 07:23:36;;;;;;;10.70;6.53;;;;;;;18.31;89.38;94857.44;5047233;28;20187;-80
2022/05/18 07:26:03;;;;;;;7.72;5.65;;;;;;;18.45;87.95;94870.03;5054103;28;20186;-80
2022/05/18 07:28:30;;;;;;;7.18;5.00;;;;;;;18.46;88.59;94860.97;5053709;28;20197;-82
2022/05/18 07:30:56;;;;;;;6.57;5.38;;;;;;;18.60;89.11;94881.84;5047290;28;20183;-80
2022/05/18 07:33:24;;;;;;;12.27;6.63;;;;;;;18.62;87.37;94891.19;5054333;28;20229;-81
2022/05/18 07:35:51;;;;;;;9.48;6.78;;;;;;;18.38;88.18;94850.81;5053669;28;20171;-81
2022/05/18 07:38:21;;;;;;;8.57;5.55;;;;;;;18.70;87.77;94895.22;5053781;28;20646;-81
2022/05/18 07:40:48;;;;;;;8.38;5.97;;;;;;;18.75;87.35;94903.28;5051412;28;20171;-81
2022/05/18 07:43:14;;;;;;;7.97;6.32;;;;;;;18.86;87.35;94904.91;5050173;28;20203;-80
2022/05/18 07:45:40;;;;;;;8.02;5.57;;;;;;;18.76;86.86;94865.69;5021401;28;20180;-80
2022/05/18 07:48:06;;;;;;;9.02;6.25;;;;;;;19.06;86.33;94906.84;5038158;28;20271;-80
2022/05/18 07:50:31;;;;;;;10.10;6.25;;;;;;;19.00;84.99;94883.88;5036623;28;20266;-81
2022/05/18 07:52:59;;;;;;;9.63;5.72;;;;;;;19.19;84.31;94906.38;5044436;28;20270;-82
2022/05/18 07:55:25;;;;;;;10.15;5.97;;;;;;;19.12;82.83;94905.78;5053560;28;20254;-82
2022/05/18 07:57:51;;;;;;;13.00;8.88;;;;;;;19.13;83.71;94902.06;5053209;28;20259;-82
2022/05/18 08:00:17;;;;;;;13.43;10.80;;;;;;;19.25;83.81;94915.19;5043557;28;20203;-81
2022/05/18 08:02:43;;;;;;;12.52;9.77;;;;;;;19.20;83.71;94889.25;5050495;28;20553;-81
2022/05/18 08:05:09;;;;;;;9.77;6.78;;;;;;;19.30;83.86;94880.47;5053613;28;20179;-81
2022/05/18 08:07:34;;;;;;;9.55;6.20;;;;;;;19.37;81.12;94897.06;5044778;28;20178;-80
2022/05/18 08:15:30;;;;;;;7.43;6.05;;;;;;;19.47;81.87;94891.72;5050379;28;20198;-80
2022/05/18 08:17:56;;;;;;;8.93;6.65;;;;;;;19.52;82.26;94895.25;5052766;28;21021;-81
2022/05/18 08:20:23;;;;;;;9.93;7.57;;;;;;;19.62;83.06;94896.31;5053354;28;20549;-79
2022/05/18 08:22:48;;;;;;;9.88;6.82;;;;;;;19.55;82.87;94881.34;5035200;28;20206;-80
2022/05/18 08:25:14;;;;;;;7.95;6.53;;;;;;;19.65;82.53;94880.56;5053215;28;20646;-81
2022/05/18 08:27:49;;;;;;;8.05;6.63;;;;;;;19.97;80.75;94923.06;5053257;28;20183;-81
2022/05/18 08:30:18;;;;;;;22.73;5.55;;;;;;;19.99;78.89;94926.25;5044071;28;20171;-80
2022/05/18 08:32:44;;;;;;;7.95;6.47;;;;;;;19.78;78.28;94904.09;5051961;28;20646;-81
2022/05/18 08:35:11;;;;;;;7.93;5.75;;;;;;;19.98;78.34;94920.09;5053816;28;20191;-80
2022/05/18 08:37:42;;;;;;;8.30;5.95;;;;;;;20.15;78.08;94929.75;5035992;28;20179;-79
2022/05/18 08:40:35;;;;;;;9.43;6.07;;;;;;;20.37;78.37;94930.25;5054000;28;20159;-79
2022/05/18 08:43:04;;;;;;;7.28;6.18;;;;;;;21.13;79.17;94926.56;5037077;28;20196;-79
2022/05/18 08:45:33;;;;;;;6.63;5.22;;;;;;;21.45;75.93;94910.88;5051572;28;20185;-79
2022/05/18 08:48:21;;;;;;;7.07;5.28;;;;;;;21.96;75.29;94916.72;5052969;28;20195;-79
2022/05/18 08:50:48;;;;;;;5.90;4.88;;;;;;;22.30;73.33;94899.81;5035092;28;20581;-78
2022/05/18 08:53:46;;;;;;;5.50;4.43;;;;;;;22.64;69.41;94923.91;5033779;28;20175;-79
2022/05/18 08:56:17;;;;;;;7.13;5.43;;;;;;;22.76;69.49;94919.75;5048790;28;20266;-78
2022/05/18 08:58:49;;;;;;;8.32;5.32;;;;;;;22.90;70.20;94907.25;5049027;28;20577;-78
2022/05/18 09:01:28;;;;;;;8.57;4.97;;;;;;;22.87;69.61;94893.59;5033409;28;20646;-78
2022/05/18 09:04:09;;;;;;;6.00;4.82;;;;;;;22.83;69.07;94896.03;5051243;28;20222;-77
2022/05/18 09:06:42;;;;;;;6.43;4.80;;;;;;;22.63;67.67;94909.69;5051256;28;20171;-77
2022/05/18 09:12:03;;;;;;;4.72;4.18;;;;;;;21.84;67.82;94892.94;5050706;28;20245;-78
2022/05/18 09:14:37;;;;;;;8.05;4.90;;;;;;;21.92;72.54;94874.66;5052430;28;20249;-83
2022/05/18 09:17:32;;;;;;;4.30;3.90;;;;;;;22.38;71.29;94880.44;5051937;28;20214;-81
2022/05/18 09:20:25;;;;;;;4.93;4.00;;;;;;;23.11;69.14;94899.72;5042151;28;20221;-80
2022/05/18 09:23:12;;;;;;;4.10;3.70;;;;;;;23.14;64.80;94852.72;5051926;28;20167;-85
2022/05/18 09:25:52;;;;;;;5.13;3.35;;;;;;;23.81;67.59;94896.38;5034660;28;20168;-86
2022/05/18 09:28:46;;;;;;;6.07;3.95;;;;;;;24.18;65.47;94893.63;5035031;28;20190;-84
2022/05/18 09:31:50;;;;;;;3.92;3.33;;;;;;;24.38;62.63;94893.31;5052848;28;20174;-88
2022/05/18 09:34:16;;;;;;;5.57;4.03;;;;;;;24.46;62.43;94896.41;5048054;28;20914;-88
2022/05/18 09:37:02;;;;;;;5.45;3.40;;;;;;;24.71;61.19;94896.72;5026055;28;20187;-82
2022/05/18 09:39:34;;;;;;;4.28;3.30;;;;;;;24.64;60.08;94860.53;5050855;28;20254;-82
2022/05/18 09:42:04;;;;;;;6.40;3.60;;;;;;;24.83;62.07;94870.09;5031302;28;20210;-82
2022/05/18 09:44:42;;;;;;;4.32;3.25;;;;;;;24.92;58.60;94875.59;5052029;28;20197;-82
2022/05/18 09:47:15;;;;;;;3.47;3.17;;;;;;;24.55;55.57;94894.63;5051808;28;20171;-83
2022/05/18 09:49:45;;;;;;;4.47;3.40;;;;;;;24.06;56.85;94890.59;5051722;28;20226;-81
2022/05/18 09:52:13;;;;;;;4.32;3.28;;;;;;;23.84;59.76;94885.84;5033868;28;20190;-83
2022/05/18 09:54:39;;;;;;;8.75;3.80;;;;;;;23.58;61.00;94877.38;5051793;28;20171;-83
2022/05/18 09:57:11;;;;;;;4.28;3.65;;;;;;;23.14;60.96;94850.00;5031746;28;20210;-82
2022/05/18 09:59:44;;;;;;;4.38;3.05;;;;;;;22.87;61.93;94851.44;5051139;28;20182;-81
2022/05/18 10:07:57;;;;;;;8.63;4.25;;;;;;;22.66;62.38;94890.28;5052520;28;20201;-83
2022/05/18 10:10:30;;;;;;;5.47;4.25;;;;;;;22.48;62.90;94870.41;5034349;28;20174;-83
2022/05/18 10:12:58;;;;;;;4.88;3.10;;;;;;;22.51;62.67;94895.84;5034160;28;20159;-82
2022/05/18 10:15:36;;;;;;;5.75;2.40;;;;;;;22.27;62.56;94900.38;5034216;28;20171;-83
2022/05/18 10:18:33;;;;;;;2.88;2.67;;;;;;;22.13;62.69;94909.09;5034244;28;20171;-83
2022/05/18 10:21:11;;;;;;;5.90;3.00;;;;;;;21.94;62.89;94910.03;5051898;28;20642;-82
2022/05/18 10:23:57;;;;;;;9.43;2.85;;;;;;;21.54;63.32;94901.19;5052037;28;20174;-83
2022/05/18 10:26:30;;;;;;;5.30;2.50;;;;;;;21.54;65.23;94924.47;5051978;28;20161;-83
2022/05/18 10:29:12;;;;;;;4.22;3.80;;;;;;;21.23;66.26;94911.28;5051821;28;20187;-83
2022/05/18 10:31:42;;;;;;;3.10;2.80;;;;;;;21.12;68.77;94935.66;5034271;28;20174;-82
2022/05/18 10:34:16;;;;;;;4.93;2.70;;;;;;;20.77;66.68;94952.66;5033945;28;20183;-82
2022/05/18 10:36:50;;;;;;;2.88;2.50;;;;;;;20.38;69.10;94936.41;5051944;28;20166;-82
2022/05/18 10:39:41;;;;;;;3.42;2.00;;;;;;;20.28;69.44;94964.75;5051860;28;20155;-82
2022/05/18 10:42:20;;;;;;;3.00;1.77;;;;;;;19.78;70.78;94949.50;5037731;28;20187;-82
2022/05/18 10:44:47;;;;;;;3.15;2.00;;;;;;;19.75;71.84;94967.91;5050144;28;20175;-82
2022/05/18 10:47:27;;;;;;;6.07;2.53;;;;;;;19.66;73.61;94964.97;5050638;28;20183;-79
2022/05/18 10:50:27;;;;;;;7.55;2.72;;;;;;;19.41;75.21;94978.22;5049022;28;20255;-79
2022/05/18 10:53:13;;;;;;;4.30;1.85;;;;;;;19.20;75.32;94980.81;5053609;28;20527;-79
2022/05/18 10:56:08;;;;;;;3.90;1.88;;;;;;;18.99;75.88;94975.66;5039141;28;20580;-79
2022/05/18 10:58:51;;;;;;;4.45;2.03;;;;;;;18.84;76.94;94984.41;5052144;28;20186;-80
2022/05/18 11:01:23;;;;;;;5.15;2.45;;;;;;;18.71;76.93;94988.31;5053601;28;20177;-81
2022/05/18 11:03:55;;;;;;;2.03;1.92;;;;;;;18.61;77.98;94974.13;5039092;28;20213;-80
2022/05/18 11:06:44;;;;;;;3.03;1.80;;;;;;;18.75;77.52;94993.97;5056876;28;20186;-80
2022/05/18 11:09:20;;;;;;;4.10;1.90;;;;;;;18.67;77.39;94978.44;5056047;28;20215;-80
2022/05/18 11:12:00;;;;;;;2.70;2.08;;;;;;;18.90;77.13;95007.38;5033851;28;20174;-78
2022/05/18 11:14:38;;;;;;;3.00;1.80;;;;;;;19.14;74.76;95021.91;5053757;28;20779;-79
2022/05/18 11:17:10;;;;;;;2.25;1.60;;;;;;;19.14;71.62;94999.75;5047586;28;20170;-78
2022/05/18 11:19:38;;;;;;;1.67;1.23;;;;;;;19.35;71.71;95019.34;5052006;28;20670;-78
2022/05/18 11:22:10;;;;;;;2.20;1.98;;;;;;;19.38;71.08;95024.13;5054137;28;20213;-78
2022/05/18 11:24:45;;;;;;;3.05;1.70;;;;;;;19.48;72.42;95029.53;5045388;28;20176;-78
2022/05/18 11:27:22;;;;;;;2.42;1.35;;;;;;;19.54;71.48;95032.00;5049839;28;20182;-79
2022/05/18 11:30:06;;;;;;;9.95;5.57;;;;;;;19.59;72.73;95036.53;5052929;28;20194;-78
2022/05/18 11:32:42;;;;;;;1.40;1.30;;;;;;;19.72;72.44;95029.91;5042041;28;20179;-79
2022/05/18 11:35:17;;;;;;;3.20;1.20;;;;;;;19.82;72.06;95038.72;5051241;28;20179;-78
2022/05/18 11:37:57;;;;;;;1.40;1.30;;;;;;;19.84;70.54;95039.28;5040457;28;20196;-79
2022/05/18 11:40:28;;;;;;;1.13;1.02;;;;;;;19.88;68.95;95050.25;5056630;28;20178;-78
2022/05/18 11:43:33;;;;;;;0.93;0.93;;;;;;;19.91;70.00;95052.38;5038895;28;20183;-78
2022/05/18 11:46:33;;;;;;;0.75;0.75;;;;;;;19.94;67.77;95068.69;5056134;28;20171;-78
2022/05/18 11:49:16;;;;;;;1.05;0.95;;;;;;;19.77;67.96;95067.31;5045759;28;20202;-78
2022/05/18 11:52:22;;;;;;;2.10;1.42;;;;;;;19.64;67.71;95068.59;5055165;28;20468;-78
2022/05/18 11:55:18;;;;;;;1.55;1.30;;;;;;;19.62;68.46;95076.09;5054205;28;20186;-78
2022/05/18 11:58:13;;;;;;;1.13;0.90;;;;;;;19.59;67.00;95061.38;5038086;28;20182;-78
2022/05/18 12:00:56;;;;;;;0.77;0.77;;;;;;;19.71;66.67;95074.53;5055722;28;20273;-78
2022/05/18 12:03:52;;;;;;;3.90;1.38;;;;;;;19.88;67.01;95083.13;5053180;28;20232;-78
2022/05/18 12:07:10;;;;;;;1.08;1.08;;;;;;;19.95;64.11;95085.53;5052148;28;20179;-78